Time;durP1;ratioP1;P1;durP2;ratioP2;P2;SDS_P1;SDS_P2;PMS_P1;PMS_P2;Temp;Humidity;BMP_temperature;BMP_pressure;BME280_temperature;BME280_humidity;BME280_pressure;Samples;Min_cycle;Max_cycle;Signal;HPM_P1;HPM_P2
2022/12/20 00:31:23;;;;;;;21.40;15.83;;;;;;;-5.66;100.00;101770.87;1755012;79;27048;-74
2022/12/20 00:33:52;;;;;;;26.63;16.87;;;;;;;-5.58;100.00;101762.05;1697179;84;21069;-76
2022/12/20 00:36:19;;;;;;;23.67;15.37;;;;;;;-5.45;100.00;101755.09;1692585;84;21812;-76
2022/12/20 00:38:50;;;;;;;29.03;18.73;;;;;;;-5.33;100.00;101753.49;1705974;83;21807;-75
2022/12/20 00:41:24;;;;;;;26.43;17.40;;;;;;;-5.18;100.00;101741.19;1711957;83;20962;-75
2022/12/20 00:43:50;;;;;;;26.17;16.30;;;;;;;-5.07;100.00;101739.53;1711645;83;21499;-76
2022/12/20 00:46:18;;;;;;;19.90;15.27;;;;;;;-4.96;100.00;101733.59;1711450;83;21597;-73
2022/12/20 00:48:44;;;;;;;25.57;14.10;;;;;;;-4.92;100.00;101738.54;1712027;83;21035;-73
2022/12/20 00:51:14;;;;;;;25.93;16.70;;;;;;;-4.85;100.00;101736.37;1711731;83;20989;-70
2022/12/20 00:53:41;;;;;;;25.47;16.77;;;;;;;-4.80;99.40;101722.94;1711724;83;20982;-71
2022/12/20 00:56:07;;;;;;;26.50;14.93;;;;;;;-4.80;97.94;101717.23;1687258;83;21090;-72
2022/12/20 00:58:35;;;;;;;24.87;14.83;;;;;;;-4.80;97.09;101714.60;1711632;83;21020;-71
2022/12/20 01:01:03;;;;;;;23.73;15.07;;;;;;;-4.81;96.60;101715.53;1711360;83;21593;-74
2022/12/20 01:03:29;;;;;;;25.67;14.40;;;;;;;-4.76;96.40;101713.91;1710645;83;20985;-73
2022/12/20 01:06:00;;;;;;;27.07;15.40;;;;;;;-4.70;95.99;101718.27;1711494;83;21041;-74
2022/12/20 01:08:30;;;;;;;22.80;13.73;;;;;;;-4.68;95.32;101719.48;1711450;83;20974;-75
2022/12/20 01:11:08;;;;;;;21.07;13.20;;;;;;;-4.61;95.03;101725.56;1723881;83;21085;-75
2022/12/20 01:13:38;;;;;;;22.73;14.03;;;;;;;-4.56;94.33;101712.13;1708097;82;21094;-73
2022/12/20 01:16:07;;;;;;;23.93;12.90;;;;;;;-4.51;93.51;101710.03;1710956;82;21017;-73
2022/12/20 01:18:34;;;;;;;25.50;13.90;;;;;;;-4.50;92.63;101711.69;1665124;82;21064;-72
2022/12/20 01:21:05;;;;;;;27.77;14.73;;;;;;;-4.47;92.27;101711.50;1743056;81;21089;-73
2022/12/20 01:23:32;;;;;;;30.43;12.63;;;;;;;-4.41;91.95;101712.38;1734886;82;21049;-74
2022/12/20 01:26:00;;;;;;;24.40;13.73;;;;;;;-4.37;91.25;101704.68;1697569;83;22263;-73
2022/12/20 01:28:27;;;;;;;34.83;15.50;;;;;;;-4.36;90.65;101711.59;1709491;82;21041;-74
2022/12/20 01:30:53;;;;;;;21.93;11.90;;;;;;;-4.33;90.29;101720.59;1721024;83;21001;-73
2022/12/20 01:33:22;;;;;;;33.47;14.87;;;;;;;-4.32;89.83;101709.15;1772194;80;21063;-77
2022/12/20 01:36:01;;;;;;;29.13;14.67;;;;;;;-4.32;88.75;101697.80;1748843;80;21086;-76
2022/12/20 01:38:30;;;;;;;28.00;14.47;;;;;;;-4.32;88.66;101688.61;1748269;82;21903;-75
2022/12/20 01:40:56;;;;;;;39.17;16.90;;;;;;;-4.31;88.15;101698.14;1748412;82;21329;-77
2022/12/20 01:43:47;;;;;;;35.07;14.97;;;;;;;-4.31;88.08;101695.52;1748135;80;20988;-76
2022/12/20 01:46:14;;;;;;;32.30;14.80;;;;;;;-4.30;87.76;101694.11;1780402;80;21558;-79
2022/12/20 01:48:43;;;;;;;34.60;15.80;;;;;;;-4.31;87.28;101695.05;1781552;80;21651;-75
2022/12/20 01:51:10;;;;;;;28.00;13.70;;;;;;;-4.31;87.04;101690.26;1780999;80;21226;-75
2022/12/20 01:53:37;;;;;;;31.40;14.97;;;;;;;-4.32;86.87;101678.10;1758457;80;20948;-74
2022/12/20 01:56:04;;;;;;;27.43;14.97;;;;;;;-4.34;86.69;101665.53;1752999;80;21038;-77
2022/12/20 01:58:31;;;;;;;29.50;14.37;;;;;;;-4.33;86.39;101656.72;1780738;80;21505;-74
2022/12/20 02:00:58;;;;;;;20.53;12.90;;;;;;;-4.35;86.14;101658.59;1780868;80;21528;-74
2022/12/20 02:03:24;;;;;;;24.83;12.57;;;;;;;-4.34;86.06;101658.50;1777653;80;21336;-73
2022/12/20 02:05:51;;;;;;;25.63;13.07;;;;;;;-4.37;85.64;101653.47;1750524;80;21140;-75
2022/12/20 02:08:18;;;;;;;29.00;12.83;;;;;;;-4.34;85.42;101645.37;1748494;82;21052;-75
2022/12/20 02:11:12;;;;;;;33.87;16.80;;;;;;;-4.34;85.37;101638.80;1747776;82;21024;-74
2022/12/20 02:14:10;;;;;;;30.83;13.53;;;;;;;-4.35;84.76;101636.27;1745602;80;21297;-75
2022/12/20 02:17:07;;;;;;;19.40;12.00;;;;;;;-4.34;84.70;101641.89;1749863;81;21125;-75
2022/12/20 02:20:11;;;;;;;37.73;14.23;;;;;;;-4.35;84.18;101629.23;1741878;81;20990;-76
2022/12/20 02:22:50;;;;;;;25.93;13.33;;;;;;;-4.32;84.25;101621.62;1750000;81;20978;-76
2022/12/20 02:25:53;;;;;;;21.23;13.27;;;;;;;-4.32;84.04;101599.30;1756293;80;21071;-76
2022/12/20 02:28:34;;;;;;;24.25;13.53;;;;;;;-4.29;83.35;101597.77;1720187;83;21473;-76
2022/12/20 02:31:04;;;;;;;17.35;12.23;;;;;;;-4.30;82.55;101594.30;1759080;80;21179;-74
2022/12/20 02:33:31;;;;;;;22.13;14.00;;;;;;;-4.30;82.55;101594.30;1787855;80;20952;-73
2022/12/20 02:35:58;;;;;;;20.23;11.37;;;;;;;-4.26;82.43;101601.01;1788080;80;21074;-74
2022/12/20 02:38:32;;;;;;;24.03;12.10;;;;;;;-4.23;82.06;101591.62;1781907;80;21511;-77
2022/12/20 02:41:28;;;;;;;18.80;13.20;;;;;;;-4.21;81.60;101588.86;1754753;81;21118;-75
2022/12/20 02:46:46;;;;;;;14.67;9.87;;;;;;;-4.17;80.41;101583.28;1755707;81;20940;-73
2022/12/20 02:49:15;;;;;;;18.40;10.63;;;;;;;-4.19;80.06;101577.78;1764771;80;21022;-74
2022/12/20 02:51:44;;;;;;;16.23;10.80;;;;;;;-4.20;80.15;101569.06;1788219;80;21039;-73
2022/12/20 02:54:11;;;;;;;16.73;9.23;;;;;;;-4.14;80.09;101567.31;1767046;80;20935;-74
2022/12/20 02:56:43;;;;;;;17.67;10.30;;;;;;;-4.05;80.13;101576.33;1684496;83;21025;-74
2022/12/20 02:59:14;;;;;;;14.83;10.93;;;;;;;-4.04;79.25;101581.48;1709386;83;21049;-74
2022/12/20 03:01:49;;;;;;;13.90;8.63;;;;;;;-4.06;79.28;101568.91;1722009;83;21099;-71
2022/12/20 03:04:16;;;;;;;13.97;10.70;;;;;;;-4.07;79.27;101555.41;1728757;82;21040;-73
2022/12/20 03:07:05;;;;;;;18.27;10.80;;;;;;;-4.07;79.42;101554.09;1735396;81;21025;-73
2022/12/20 03:09:34;;;;;;;16.27;10.13;;;;;;;-4.04;79.32;101543.85;1711628;82;21130;-72
2022/12/20 03:12:02;;;;;;;12.63;9.70;;;;;;;-4.05;78.96;101548.73;1721703;82;21542;-73
2022/12/20 03:14:30;;;;;;;14.43;9.03;;;;;;;-4.05;78.80;101553.98;1692505;84;21074;-78
2022/12/20 03:16:57;;;;;;;17.13;9.67;;;;;;;-4.05;78.21;101544.80;1726016;82;20996;-77
2022/12/20 03:19:24;;;;;;;14.27;9.77;;;;;;;-4.06;78.36;101544.42;1715484;82;21097;-79
2022/12/20 03:21:52;;;;;;;14.97;10.00;;;;;;;-4.13;77.21;101544.05;1739185;82;21089;-78
2022/12/20 03:24:20;;;;;;;10.93;8.73;;;;;;;-4.20;77.21;101538.85;1709489;83;20986;-77
2022/12/20 03:26:46;;;;;;;14.20;10.33;;;;;;;-4.26;76.90;101538.44;1685091;83;20995;-77
2022/12/20 03:29:14;;;;;;;11.07;9.90;;;;;;;-4.33;77.14;101534.12;1742530;81;21521;-75
2022/12/20 03:31:40;;;;;;;12.50;8.90;;;;;;;-4.34;76.60;101519.77;1713020;82;21763;-71
2022/12/20 03:34:07;;;;;;;9.33;7.50;;;;;;;-4.38;76.41;101520.94;1710933;83;21830;-74
2022/12/20 03:36:34;;;;;;;11.93;7.90;;;;;;;-4.41;76.55;101517.57;1711451;82;21099;-78
2022/12/20 03:39:01;;;;;;;13.23;8.60;;;;;;;-4.31;76.75;101516.44;1710612;83;21013;-75
2022/12/20 03:41:35;;;;;;;15.73;10.40;;;;;;;-4.25;75.74;101515.17;1710777;83;21125;-76
2022/12/20 03:44:03;;;;;;;14.57;9.67;;;;;;;-4.26;75.55;101505.61;1711071;83;21553;-77
2022/12/20 03:46:30;;;;;;;12.40;8.10;;;;;;;-4.26;75.61;101507.76;1685557;82;21707;-75
2022/12/20 03:48:56;;;;;;;11.13;8.43;;;;;;;-4.22;75.05;101496.08;1711111;83;21061;-73
2022/12/20 03:51:23;;;;;;;12.77;9.00;;;;;;;-4.14;74.67;101494.23;1708928;83;21045;-74
2022/12/20 03:53:51;;;;;;;14.63;9.20;;;;;;;-4.10;74.62;101482.07;1684325;83;20966;-73
2022/12/20 03:56:18;;;;;;;11.93;8.27;;;;;;;-4.01;73.82;101480.08;1709473;83;21102;-72
2022/12/20 03:58:45;;;;;;;11.87;8.17;;;;;;;-3.94;73.06;101479.17;1716541;82;21171;-73
2022/12/20 04:01:21;;;;;;;9.53;7.63;;;;;;;-3.89;72.83;101469.16;1740394;82;21053;-73
2022/12/20 04:03:48;;;;;;;12.83;9.73;;;;;;;-3.83;72.30;101460.80;1712674;82;21006;-70
2022/12/20 04:06:15;;;;;;;11.00;8.37;;;;;;;-3.75;72.37;101452.36;1744341;81;20994;-74
2022/12/20 04:08:43;;;;;;;11.70;8.70;;;;;;;-3.69;71.53;101455.81;1724754;81;21620;-75
2022/12/20 04:11:16;;;;;;;11.57;9.43;;;;;;;-3.60;70.99;101444.13;1691965;84;21831;-75
2022/12/20 04:13:49;;;;;;;9.87;8.00;;;;;;;-3.62;69.39;101426.34;1710303;83;21002;-73
2022/12/20 04:16:17;;;;;;;8.17;6.37;;;;;;;-3.60;69.26;101426.23;1711005;83;21545;-74
2022/12/20 04:18:44;;;;;;;11.83;7.57;;;;;;;-3.58;68.54;101423.83;1711001;83;21097;-72
2022/12/20 04:21:11;;;;;;;13.67;9.53;;;;;;;-3.61;67.66;101404.83;1716999;82;20995;-75
2022/12/20 04:23:41;;;;;;;10.97;8.17;;;;;;;-3.62;67.84;101393.47;1713144;82;21086;-83
2022/12/20 04:26:09;;;;;;;9.57;6.50;;;;;;;-3.65;67.43;101389.77;1713468;83;21054;-80
2022/12/20 04:28:36;;;;;;;10.43;8.13;;;;;;;-3.67;66.23;101389.04;1685036;83;21073;-79
2022/12/20 04:31:03;;;;;;;10.30;7.93;;;;;;;-3.60;66.56;101382.84;1689343;83;21119;-80
2022/12/20 04:33:32;;;;;;;10.80;7.50;;;;;;;-3.49;66.64;101393.83;1725326;81;21084;-78
2022/12/20 04:35:58;;;;;;;12.03;8.33;;;;;;;-3.42;66.22;101395.89;1701945;82;21078;-79
2022/12/20 04:38:25;;;;;;;9.77;7.17;;;;;;;-3.38;65.29;101403.06;1697515;81;21069;-80
2022/12/20 04:40:53;;;;;;;8.00;6.63;;;;;;;-3.31;64.93;101404.28;1720314;83;21312;-80
2022/12/20 04:43:23;;;;;;;11.47;7.47;;;;;;;-3.23;64.14;101396.14;1701350;84;21015;-83
2022/12/20 04:45:55;;;;;;;8.33;6.40;;;;;;;-3.17;63.46;101396.98;1704231;82;21082;-81
2022/12/20 04:48:27;;;;;;;10.23;6.83;;;;;;;-3.07;63.16;101400.21;1692707;82;21107;-74
2022/12/20 04:50:55;;;;;;;11.10;6.58;;;;;;;-3.00;62.49;101399.59;1681472;83;21102;-79
2022/12/20 04:56:10;;;;;;;7.37;5.93;;;;;;;-2.87;61.06;101393.72;1720438;83;20903;-75
2022/12/20 04:58:37;;;;;;;8.70;6.83;;;;;;;-2.82;60.74;101384.13;1714315;81;21007;-75
2022/12/20 05:01:04;;;;;;;9.90;6.97;;;;;;;-2.75;61.27;101380.06;1731045;81;21120;-73
2022/12/20 05:03:36;;;;;;;10.10;6.70;;;;;;;-2.69;61.06;101383.53;1751227;81;21609;-74
2022/12/20 05:06:03;;;;;;;8.47;5.57;;;;;;;-2.66;60.03;101380.16;1704497;83;21684;-72
2022/12/20 05:08:29;;;;;;;8.90;7.00;;;;;;;-2.70;59.07;101373.95;1679728;84;21069;-73
2022/12/20 05:10:56;;;;;;;7.57;5.87;;;;;;;-2.75;59.33;101373.00;1734462;81;21021;-74
2022/12/20 05:13:23;;;;;;;9.20;7.30;;;;;;;-2.72;59.86;101364.84;1734857;81;21079;-76
2022/12/20 05:15:52;;;;;;;9.17;7.17;;;;;;;-2.68;59.81;101358.84;1716063;82;20998;-77
2022/12/20 05:18:21;;;;;;;10.53;6.83;;;;;;;-2.73;59.54;101350.00;1731626;82;21058;-74
2022/12/20 05:26:16;;;;;;;8.10;6.30;;;;;;;-2.70;58.96;101342.36;1715187;83;21025;-76
2022/12/20 05:26:17;;;;;;;7.90;6.07;;;;;;;-2.66;58.48;101349.88;1717983;82;21187;-74
2022/12/20 05:28:47;;;;;;;7.33;5.87;;;;;;;-2.63;57.65;101344.83;1725572;83;21060;-76
2022/12/20 05:31:14;;;;;;;10.53;5.47;;;;;;;-2.64;57.49;101336.09;1738564;81;21036;-76
2022/12/20 05:33:41;;;;;;;11.10;7.83;;;;;;;-2.69;57.59;101331.70;1761009;80;21016;-75
2022/12/20 05:36:08;;;;;;;10.17;7.27;;;;;;;-2.70;58.30;101331.34;1761770;80;21090;-75
2022/12/20 05:38:36;;;;;;;10.30;6.90;;;;;;;-2.66;58.75;101327.97;1751012;80;21015;-76
2022/12/20 05:41:06;;;;;;;11.80;8.23;;;;;;;-2.69;58.74;101319.86;1781151;80;20999;-75
2022/12/20 05:43:33;;;;;;;7.93;5.47;;;;;;;-2.70;58.73;101308.13;1780916;80;21012;-74
2022/12/20 05:46:00;;;;;;;11.93;6.07;;;;;;;-2.68;58.50;101299.13;1778967;80;21075;-75
2022/12/20 05:48:28;;;;;;;8.73;6.80;;;;;;;-2.67;58.30;101294.22;1760307;80;20952;-85
2022/12/20 05:50:57;;;;;;;9.90;8.60;;;;;;;-2.66;58.09;101291.11;1762496;80;21010;-78
2022/12/20 05:53:28;;;;;;;12.10;7.97;;;;;;;-2.65;58.15;101273.87;1750375;80;20912;-75
2022/12/20 05:55:56;;;;;;;12.67;7.47;;;;;;;-2.59;58.34;101283.07;1757462;80;21031;-75
2022/12/20 05:58:29;;;;;;;14.63;7.90;;;;;;;-2.53;57.58;101275.95;1780501;80;21000;-75
2022/12/20 06:01:02;;;;;;;12.13;7.53;;;;;;;-2.47;57.38;101279.41;1781375;80;20956;-77
2022/12/20 06:03:29;;;;;;;8.60;5.97;;;;;;;-2.42;57.37;101278.55;1760969;80;21005;-74
2022/12/20 06:05:57;;;;;;;9.23;6.30;;;;;;;-2.35;56.49;101266.52;1754234;80;20979;-75
2022/12/20 06:08:30;;;;;;;10.60;7.20;;;;;;;-2.28;56.44;101260.27;1750140;80;21046;-75
2022/12/20 06:11:00;;;;;;;8.30;5.63;;;;;;;-2.21;56.20;101262.76;1764728;80;20924;-76
2022/12/20 06:13:31;;;;;;;9.23;6.37;;;;;;;-2.13;54.86;101269.53;1780418;80;20980;-76
2022/12/20 06:15:59;;;;;;;11.63;5.70;;;;;;;-2.06;54.76;101257.48;1780911;80;21241;-75
2022/12/20 06:18:26;;;;;;;12.47;5.50;;;;;;;-1.96;54.43;101257.53;1761047;80;20936;-76
2022/12/20 06:20:54;;;;;;;9.57;6.07;;;;;;;-1.87;53.90;101256.27;1777996;80;21614;-81
2022/12/20 06:23:23;;;;;;;6.03;5.43;;;;;;;-1.78;52.95;101258.62;1781555;80;21034;-78
2022/12/20 06:25:56;;;;;;;8.30;6.27;;;;;;;-1.74;52.27;101247.31;1730686;81;21004;-74
2022/12/20 06:28:25;;;;;;;6.83;6.00;;;;;;;-1.71;51.70;101254.47;1750398;80;21910;-80
2022/12/20 06:30:56;;;;;;;10.33;5.80;;;;;;;-1.62;51.65;101247.08;1773920;80;21488;-74
2022/12/20 06:33:26;;;;;;;10.37;5.37;;;;;;;-1.52;51.37;101237.88;1754143;80;20896;-75
2022/12/20 06:35:53;;;;;;;8.33;5.83;;;;;;;-1.44;50.99;101252.58;1753050;81;21035;-76
2022/12/20 06:38:21;;;;;;;7.43;5.47;;;;;;;-1.39;50.69;101249.86;1733081;80;21012;-75
2022/12/20 06:40:49;;;;;;;10.07;6.60;;;;;;;-1.34;49.92;101235.78;1763662;80;22328;-74
2022/12/20 06:43:15;;;;;;;11.27;6.13;;;;;;;-1.28;50.43;101224.33;1786228;80;21080;-76
2022/12/20 06:45:42;;;;;;;7.87;5.37;;;;;;;-1.22;49.61;101240.95;1763665;80;21034;-77
2022/12/20 06:48:11;;;;;;;9.87;5.97;;;;;;;-1.16;49.73;101229.38;1772399;80;20963;-82
2022/12/20 06:50:40;;;;;;;7.53;5.70;;;;;;;-1.10;50.17;101206.37;1753365;81;20959;-82
2022/12/20 06:53:09;;;;;;;7.77;5.70;;;;;;;-1.06;48.73;101209.59;1753649;81;20940;-77
2022/12/20 06:55:39;;;;;;;9.13;5.67;;;;;;;-1.03;49.15;101208.81;1752712;81;21043;-77
2022/12/20 11:04:28;;;;;;;13.47;8.83;;;;;;;0.65;47.80;100881.00;1770336;77;22375;-76
2022/12/20 11:06:55;;;;;;;11.30;7.58;;;;;;;0.68;46.78;100884.66;1715636;81;20946;-74
2022/12/20 11:09:35;;;;;;;8.18;6.60;;;;;;;0.74;46.95;100881.88;1747824;81;21283;-75
2022/12/20 11:12:15;;;;;;;9.15;6.45;;;;;;;0.77;45.67;100874.93;1693190;83;20951;-76
2022/12/20 11:14:43;;;;;;;11.93;7.72;;;;;;;0.82;46.07;100867.34;1717625;82;21042;-74
2022/12/20 11:17:35;;;;;;;9.95;6.60;;;;;;;0.88;45.95;100867.55;1694806;84;20947;-76
2022/12/20 11:20:28;;;;;;;9.58;7.03;;;;;;;0.92;45.55;100880.47;1664975;84;21070;-79
2022/12/20 11:23:20;;;;;;;13.68;7.00;;;;;;;0.94;45.00;100874.53;1679527;83;21923;-76
2022/12/20 11:26:21;;;;;;;14.03;9.18;;;;;;;0.97;45.22;100876.85;1707229;82;21565;-83
2022/12/20 11:29:29;;;;;;;12.73;8.18;;;;;;;0.96;44.65;100847.41;1698536;83;21020;-73
2022/12/20 11:32:34;;;;;;;15.10;8.13;;;;;;;0.97;45.28;100851.20;1721004;83;20995;-81
2022/12/20 11:35:13;;;;;;;15.40;8.93;;;;;;;0.98;45.10;100829.03;1704063;83;21625;-75
2022/12/20 11:38:07;;;;;;;13.10;8.78;;;;;;;0.99;45.43;100816.13;1701844;83;21785;-93
2022/12/20 11:40:52;;;;;;;10.30;6.83;;;;;;;1.00;45.53;100828.88;1713490;83;21648;-88
2022/12/20 11:43:49;;;;;;;18.85;8.13;;;;;;;1.00;45.42;100818.28;1694957;83;21712;-83
2022/12/20 11:46:44;;;;;;;8.13;6.87;;;;;;;1.01;45.53;100808.03;1723630;82;21550;-78
2022/12/20 11:49:56;;;;;;;10.55;7.90;;;;;;;1.03;45.74;100796.76;1719570;82;21094;-82
2022/12/20 11:52:35;;;;;;;10.20;7.83;;;;;;;1.00;45.95;100783.84;1735657;81;21248;-77
2022/12/20 11:55:32;;;;;;;11.50;6.97;;;;;;;0.97;46.19;100786.30;1711036;81;21013;-79
2022/12/20 11:58:20;;;;;;;13.58;7.47;;;;;;;0.98;46.04;100777.87;1729171;81;21573;-83
2022/12/20 12:00:57;;;;;;;11.35;7.17;;;;;;;0.98;46.28;100766.78;1751927;81;20991;-76
2022/12/20 12:03:42;;;;;;;12.30;7.30;;;;;;;0.99;45.83;100768.94;1750977;81;21063;-78
2022/12/20 12:06:23;;;;;;;11.73;8.13;;;;;;;0.98;46.29;100760.66;1711476;81;21155;-75
2022/12/20 12:09:16;;;;;;;11.20;7.03;;;;;;;0.98;46.23;100752.70;1731160;81;21022;-78
2022/12/20 12:12:07;;;;;;;10.82;7.45;;;;;;;0.99;46.42;100757.85;1745398;81;21607;-85
2022/12/20 12:14:56;;;;;;;14.78;7.87;;;;;;;1.00;46.25;100760.84;1757363;80;21533;-84
2022/12/20 12:17:46;;;;;;;12.03;7.25;;;;;;;1.01;46.55;100767.77;1742232;81;21036;-84
2022/12/20 12:20:38;;;;;;;13.40;8.15;;;;;;;1.01;46.25;100750.55;1749274;81;21312;-84
2022/12/20 12:23:25;;;;;;;12.50;7.15;;;;;;;1.02;46.41;100767.28;1752864;81;21591;-85
2022/12/20 12:25:54;;;;;;;10.23;6.95;;;;;;;1.03;46.61;100763.64;1753876;81;20980;-86
2022/12/20 12:28:20;;;;;;;11.05;7.58;;;;;;;1.03;46.31;100768.95;1746888;81;20999;-84
2022/12/20 12:30:58;;;;;;;13.00;8.18;;;;;;;1.05;46.69;100758.53;1753635;81;21059;-87
2022/12/20 12:33:31;;;;;;;7.78;6.10;;;;;;;1.07;46.93;100753.05;1753454;81;21159;-84
2022/12/20 12:36:13;;;;;;;14.13;7.55;;;;;;;1.09;46.78;100745.79;1754124;81;21035;-86
2022/12/20 12:38:52;;;;;;;10.95;7.03;;;;;;;1.10;46.96;100756.72;1752868;81;20955;-84
2022/12/20 12:41:45;;;;;;;10.85;7.60;;;;;;;1.11;47.02;100741.14;1752337;81;20947;-86
2022/12/20 12:44:25;;;;;;;9.28;7.30;;;;;;;1.09;47.09;100766.48;1736216;81;21042;-86
2022/12/20 12:46:58;;;;;;;12.33;8.30;;;;;;;1.10;46.99;100776.59;1748568;81;21132;-81
2022/12/20 12:49:29;;;;;;;12.93;9.18;;;;;;;1.09;46.93;100766.48;1753669;81;20947;-81
2022/12/20 12:51:58;;;;;;;15.00;7.60;;;;;;;1.08;47.18;100752.91;1753649;81;21662;-83
2022/12/20 12:54:38;;;;;;;12.80;8.65;;;;;;;1.09;47.57;100755.89;1677845;81;20939;-81
2022/12/20 12:57:13;;;;;;;13.10;8.40;;;;;;;1.11;47.73;100755.70;1761345;80;21064;-80
2022/12/20 12:59:47;;;;;;;10.95;8.15;;;;;;;1.11;47.93;100756.54;1731779;82;21108;-80
2022/12/20 13:02:36;;;;;;;15.23;9.05;;;;;;;1.12;48.10;100770.62;1706689;82;21565;-84
2022/12/20 13:05:12;;;;;;;11.78;8.20;;;;;;;1.12;48.23;100752.08;1718089;82;20939;-88
2022/12/20 13:07:43;;;;;;;15.98;9.93;;;;;;;1.08;48.25;100747.60;1699151;83;21038;-87
2022/12/20 13:10:20;;;;;;;13.35;7.60;;;;;;;1.08;48.56;100752.07;1733875;81;21030;-83
2022/12/20 13:13:01;;;;;;;11.40;8.75;;;;;;;1.09;48.58;100741.33;1741563;81;22318;-85
2022/12/20 13:15:35;;;;;;;12.98;9.23;;;;;;;1.10;48.69;100751.42;1717279;81;21033;-86
2022/12/20 13:18:16;;;;;;;18.13;9.10;;;;;;;1.06;48.99;100741.63;1753206;81;21817;-86
2022/12/20 13:21:17;;;;;;;15.38;9.73;;;;;;;1.06;48.99;100741.63;1753166;81;21338;-84
2022/12/20 13:23:46;;;;;;;12.07;8.13;;;;;;;1.06;49.14;100736.33;1752067;81;20985;-86
2022/12/20 13:26:44;;;;;;;17.32;9.60;;;;;;;1.10;49.20;100736.86;1726981;81;21882;-87
2022/12/20 13:29:28;;;;;;;16.10;8.93;;;;;;;1.09;49.33;100731.22;1752539;81;21028;-84
2022/12/20 13:31:55;;;;;;;14.58;7.95;;;;;;;1.09;49.49;100727.25;1726222;81;20995;-83
2022/12/20 13:34:57;;;;;;;11.35;8.33;;;;;;;1.09;49.74;100716.64;1726191;81;21035;-86
2022/12/20 13:37:30;;;;;;;19.27;9.68;;;;;;;1.08;49.83;100724.25;1753401;81;20967;-80
2022/12/20 13:39:57;;;;;;;13.60;9.20;;;;;;;1.06;49.93;100719.11;1756621;81;22395;-84
2022/12/20 13:42:57;;;;;;;12.35;9.03;;;;;;;1.04;50.30;100718.95;1755815;81;20896;-87
2022/12/20 13:45:39;;;;;;;13.80;9.23;;;;;;;1.02;50.35;100720.43;1714625;83;20967;-88
2022/12/20 13:48:48;;;;;;;12.80;8.58;;;;;;;1.02;50.73;100711.66;1721307;83;21645;-84
2022/12/20 13:51:26;;;;;;;15.35;9.03;;;;;;;0.99;50.99;100713.31;1728870;81;20998;-84
2022/12/20 13:54:07;;;;;;;16.00;8.10;;;;;;;0.97;51.76;100716.12;1734216;82;21091;-85
2022/12/20 19:21:57;;;;;;;23.63;16.13;;;;;;;0.87;77.77;100400.31;1790282;77;52274;-77
2022/12/20 19:24:24;;;;;;;19.92;14.25;;;;;;;0.95;77.38;100402.13;1731987;82;20960;-77
2022/12/20 19:26:51;;;;;;;22.77;13.68;;;;;;;1.02;76.75;100399.11;1745230;81;22261;-78
2022/12/20 19:29:17;;;;;;;23.70;14.28;;;;;;;1.08;76.41;100401.09;1730134;81;20975;-80
2022/12/20 19:31:46;;;;;;;23.32;14.07;;;;;;;1.10;75.81;100389.84;1733726;81;20950;-78
2022/12/20 19:34:14;;;;;;;31.57;14.90;;;;;;;1.10;75.71;100392.48;1718944;81;20936;-82
2022/12/20 19:36:43;;;;;;;19.35;12.55;;;;;;;1.11;75.46;100390.14;1727256;81;21016;-80
2022/12/20 19:39:19;;;;;;;21.75;13.20;;;;;;;1.12;75.25;100387.33;1732887;80;21197;-81
2022/12/20 19:41:46;;;;;;;20.55;13.45;;;;;;;1.13;75.03;100386.83;1735286;81;20990;-83
2022/12/20 19:44:12;;;;;;;21.23;12.93;;;;;;;1.13;74.96;100385.02;1737360;81;21006;-80
2022/12/20 19:46:38;;;;;;;20.88;13.60;;;;;;;1.14;74.89;100386.67;1751044;81;21142;-77
2022/12/20 19:49:05;;;;;;;16.97;12.07;;;;;;;1.15;74.72;100385.64;1746249;81;21602;-80
2022/12/20 19:51:32;;;;;;;23.95;12.95;;;;;;;1.14;74.65;100382.70;1724758;81;22070;-80
2022/12/20 19:53:58;;;;;;;19.15;13.03;;;;;;;1.15;74.55;100383.00;1723264;81;21096;-79
2022/12/20 19:56:30;;;;;;;20.57;14.65;;;;;;;1.18;74.47;100390.63;1745465;81;21078;-81
2022/12/20 19:58:56;;;;;;;22.20;14.03;;;;;;;1.19;74.32;100380.36;1736232;81;21595;-81
2022/12/20 20:01:24;;;;;;;23.07;14.58;;;;;;;1.21;74.08;100385.47;1743795;81;21035;-80
2022/12/20 20:03:52;;;;;;;21.30;13.20;;;;;;;1.21;73.80;100382.81;1737865;81;22445;-80
2022/12/20 20:06:19;;;;;;;20.52;14.20;;;;;;;1.21;73.72;100382.81;1751023;81;21092;-80
2022/12/20 20:08:47;;;;;;;21.68;15.10;;;;;;;1.22;73.66;100381.83;1768804;80;21539;-80
2022/12/20 20:11:13;;;;;;;20.60;15.08;;;;;;;1.22;73.70;100384.47;1751750;81;21624;-77
2022/12/20 20:13:40;;;;;;;18.98;14.38;;;;;;;1.23;73.69;100379.01;1752626;81;21015;-79
2022/12/20 20:16:09;;;;;;;18.82;13.03;;;;;;;1.22;73.65;100369.41;1731929;80;21244;-73
2022/12/20 20:18:38;;;;;;;19.00;13.03;;;;;;;1.25;73.74;100366.89;1742889;81;21034;-78
2022/12/20 20:21:07;;;;;;;22.62;15.35;;;;;;;1.27;73.75;100364.91;1736170;81;21018;-83
2022/12/20 20:23:35;;;;;;;19.90;14.00;;;;;;;1.30;73.79;100363.23;1735377;81;21022;-83
2022/12/20 20:26:09;;;;;;;20.27;13.40;;;;;;;1.31;73.71;100356.94;1772433;80;21132;-81
2022/12/20 20:28:37;;;;;;;20.50;13.53;;;;;;;1.30;73.74;100362.73;1776940;80;21360;-75
2022/12/20 20:31:04;;;;;;;23.00;13.45;;;;;;;1.31;73.71;100364.39;1754944;81;20928;-81
2022/12/20 20:33:30;;;;;;;22.45;16.32;;;;;;;1.31;73.61;100359.09;1772899;80;21690;-84
2022/12/20 20:36:02;;;;;;;21.52;14.47;;;;;;;1.33;73.81;100368.20;1763853;80;20975;-84
2022/12/20 20:38:29;;;;;;;24.07;13.40;;;;;;;1.34;73.75;100359.25;1733970;81;21092;-80
2022/12/20 20:40:56;;;;;;;18.42;13.18;;;;;;;1.35;73.72;100367.51;1776935;80;21135;-78
2022/12/20 20:43:23;;;;;;;22.52;15.68;;;;;;;1.38;73.75;100367.67;1752972;80;21079;-74
2022/12/20 20:45:51;;;;;;;23.10;15.00;;;;;;;1.39;73.56;100369.34;1733058;81;21531;-77
2022/12/20 20:48:19;;;;;;;23.73;15.15;;;;;;;1.39;73.67;100366.69;1751843;80;21566;-74
2022/12/20 20:50:45;;;;;;;26.10;16.52;;;;;;;1.41;73.68;100369.47;1760848;80;21051;-72
2022/12/20 20:53:12;;;;;;;26.55;17.02;;;;;;;1.43;73.72;100370.63;1741131;80;21724;-71
2022/12/20 20:55:39;;;;;;;25.50;16.95;;;;;;;1.44;73.65;100370.97;1732131;80;21013;-73
2022/12/20 20:58:07;;;;;;;21.85;14.35;;;;;;;1.46;73.67;100367.13;1761654;80;20999;-72
2022/12/20 21:00:34;;;;;;;23.27;14.40;;;;;;;1.46;73.47;100372.42;1782689;80;21002;-73
2022/12/20 21:03:01;;;;;;;19.05;12.70;;;;;;;1.47;73.46;100379.38;1763998;80;21062;-72
2022/12/20 21:05:28;;;;;;;23.15;14.60;;;;;;;1.48;73.58;100379.72;1776393;80;21227;-72
2022/12/20 21:07:54;;;;;;;23.00;15.00;;;;;;;1.48;73.54;100373.59;1782492;80;20952;-71
2022/12/20 21:10:23;;;;;;;17.52;12.93;;;;;;;1.50;73.68;100373.72;1775772;80;21043;-72
2022/12/20 21:12:50;;;;;;;23.40;14.65;;;;;;;1.51;73.53;100370.58;1765722;80;21014;-75
2022/12/20 21:15:17;;;;;;;19.07;13.50;;;;;;;1.54;73.13;100359.61;1754389;80;21086;-80
2022/12/20 21:17:44;;;;;;;24.47;13.35;;;;;;;1.56;73.01;100357.62;1752800;80;22026;-81
2022/12/20 21:20:11;;;;;;;21.70;16.40;;;;;;;1.57;72.95;100353.98;1764024;80;21103;-82
2022/12/20 21:22:39;;;;;;;22.13;14.07;;;;;;;1.57;73.06;100358.78;1778286;80;21022;-76
2022/12/20 21:25:08;;;;;;;23.52;16.45;;;;;;;1.57;73.03;100359.28;1759853;80;21583;-76
2022/12/20 21:27:40;;;;;;;24.70;14.65;;;;;;;1.59;72.91;100365.22;1764039;80;20994;-77
2022/12/20 21:30:08;;;;;;;25.68;15.85;;;;;;;1.60;72.92;100365.05;1759290;80;21101;-82
2022/12/20 21:32:35;;;;;;;21.27;15.53;;;;;;;1.60;72.92;100357.09;1769936;80;21049;-80
2022/12/20 21:35:02;;;;;;;23.75;15.00;;;;;;;1.65;72.91;100356.57;1764426;80;20931;-79
2022/12/20 21:37:29;;;;;;;22.37;14.05;;;;;;;1.68;72.71;100357.53;1758142;81;20987;-79
2022/12/20 21:39:56;;;;;;;27.55;15.72;;;;;;;1.68;72.55;100350.91;1762976;81;21039;-76
2022/12/20 21:42:22;;;;;;;21.70;14.30;;;;;;;1.68;72.51;100354.38;1739207;81;21244;-77
2022/12/20 21:44:49;;;;;;;26.68;14.87;;;;;;;1.69;72.59;100359.19;1763902;80;20987;-78
2022/12/20 21:47:16;;;;;;;23.67;16.48;;;;;;;1.70;72.60;100355.05;1778427;80;21018;-75
2022/12/20 21:49:43;;;;;;;20.62;14.50;;;;;;;1.75;72.67;100366.45;1771183;80;21088;-74
2022/12/20 21:52:09;;;;;;;22.70;15.23;;;;;;;1.79;72.63;100360.28;1755572;80;21334;-74
2022/12/20 21:54:36;;;;;;;25.77;16.05;;;;;;;1.82;72.48;100367.41;1771018;80;21341;-76